createdAt,value
2023-02-17T00:01:27.773Z,99.90
2023-02-17T00:03:56.072Z,99.90
2023-02-17T00:06:27.491Z,99.90
2023-02-17T00:08:56.673Z,99.90
2023-02-17T00:11:24.960Z,99.90
2023-02-17T00:13:56.216Z,99.90
2023-02-17T00:16:26.090Z,99.90
2023-02-17T00:18:55.876Z,99.90
2023-02-17T00:21:27.198Z,99.90
2023-02-17T00:23:55.448Z,99.90
2023-02-17T00:26:23.791Z,99.90
2023-02-17T00:28:52.036Z,99.90
2023-02-17T00:31:21.852Z,99.90
2023-02-17T00:33:50.693Z,99.90
2023-02-17T00:36:20.479Z,99.90
2023-02-17T00:38:51.582Z,99.90
2023-02-17T00:41:20.772Z,99.90
2023-02-17T00:43:49.450Z,99.90
2023-02-17T00:46:18.941Z,99.90
2023-02-17T00:48:47.414Z,99.90
2023-02-17T00:51:15.748Z,99.90
2023-02-17T00:53:43.937Z,99.90
2023-02-17T00:56:13.748Z,99.90
2023-02-17T00:58:42.502Z,99.90
2023-02-17T01:01:11.362Z,99.90
2023-02-17T01:03:42.218Z,99.90
2023-02-17T01:06:15.300Z,99.90
2023-02-17T01:08:43.450Z,99.90
2023-02-17T01:11:19.326Z,99.90
2023-02-17T01:13:47.940Z,99.90
2023-02-17T01:16:21.445Z,99.90
2023-02-17T01:18:49.676Z,99.90
2023-02-17T01:21:20.811Z,99.90
2023-02-17T01:23:50.777Z,99.90
2023-02-17T01:26:22.908Z,99.90
2023-02-17T01:28:52.242Z,99.90
2023-02-17T01:31:22.366Z,99.90
2023-02-17T01:33:51.253Z,99.90
2023-02-17T01:36:20.698Z,99.90
2023-02-17T01:38:48.995Z,99.90
2023-02-17T01:41:23.488Z,99.90
2023-02-17T01:44:13.753Z,99.90
2023-02-17T01:46:43.123Z,99.90
2023-02-17T01:49:22.469Z,99.90
2023-02-17T01:51:54.224Z,99.90
2023-02-17T01:54:27.617Z,99.90
2023-02-17T01:56:59.707Z,99.90
2023-02-17T01:59:29.526Z,99.90
2023-02-17T02:02:01.151Z,99.90
2023-02-17T02:04:33.138Z,99.90
2023-02-17T02:07:03.823Z,99.90
2023-02-17T02:09:36.494Z,99.90
2023-02-17T02:12:18.307Z,99.90
2023-02-17T02:14:46.806Z,99.90
2023-02-17T02:17:24.298Z,99.90
2023-02-17T02:20:28.293Z,99.90
2023-02-17T02:23:20.592Z,99.90
2023-02-17T02:26:27.310Z,99.90
2023-02-17T02:29:21.032Z,99.90
2023-02-17T02:32:01.016Z,99.90
2023-02-17T02:34:35.479Z,99.90
2023-02-17T02:37:10.209Z,99.90
2023-02-17T02:39:43.833Z,99.90
2023-02-17T02:42:15.759Z,99.90
2023-02-17T02:44:44.110Z,99.90
2023-02-17T02:47:41.595Z,99.90
2023-02-17T02:50:13.919Z,99.90
2023-02-17T02:52:59.762Z,99.90
2023-02-17T02:55:43.119Z,99.90
2023-02-17T02:58:18.351Z,99.90
2023-02-17T03:00:55.409Z,99.90
2023-02-17T03:03:30.058Z,99.90
2023-02-17T03:06:07.512Z,99.90
2023-02-17T03:08:39.698Z,99.90
2023-02-17T03:11:08.421Z,99.90
2023-02-17T03:13:39.653Z,99.90
2023-02-17T03:16:12.138Z,99.90
2023-02-17T03:18:40.246Z,99.90
2023-02-17T03:21:15.549Z,99.90
2023-02-17T03:23:44.434Z,99.90
2023-02-17T03:26:12.514Z,99.90
2023-02-17T03:28:40.718Z,99.90
2023-02-17T03:31:08.878Z,99.90
2023-02-17T03:33:37.028Z,99.90
2023-02-17T03:36:05.746Z,99.90
2023-02-17T03:38:35.321Z,99.90
2023-02-17T03:41:03.650Z,99.90
2023-02-17T03:43:31.692Z,99.90
2023-02-17T03:45:59.796Z,99.90
2023-02-17T03:48:27.884Z,99.90
2023-02-17T03:50:56.082Z,99.90
2023-02-17T03:53:24.140Z,99.90
2023-02-17T03:55:53.565Z,99.90
2023-02-17T03:58:21.573Z,99.90
2023-02-17T04:00:49.590Z,99.90
2023-02-17T04:03:17.536Z,99.90
2023-02-17T04:05:45.888Z,99.90
2023-02-17T04:08:13.903Z,99.90
2023-02-17T04:10:41.985Z,99.90
2023-02-17T04:13:11.632Z,99.90
2023-02-17T04:15:39.680Z,99.90
2023-02-17T04:18:07.694Z,99.90
2023-02-17T04:20:35.756Z,99.90
2023-02-17T04:23:03.801Z,99.90
2023-02-17T04:25:34.200Z,99.90
2023-02-17T04:28:02.411Z,99.90
2023-02-17T04:30:32.036Z,99.90
2023-02-17T04:33:00.220Z,99.90
2023-02-17T04:35:28.792Z,99.90
2023-02-17T04:37:56.987Z,99.90
2023-02-17T04:40:25.016Z,99.90
2023-02-17T04:42:53.053Z,99.90
2023-02-17T04:45:21.264Z,99.90
2023-02-17T04:47:50.726Z,99.90
2023-02-17T04:50:20.935Z,99.90
2023-02-17T04:52:49.269Z,99.90
2023-02-17T04:55:17.285Z,99.90
2023-02-17T04:57:45.328Z,99.90
2023-02-17T05:00:14.481Z,99.90
2023-02-17T05:02:42.456Z,99.90
2023-02-17T05:05:15.171Z,99.90
2023-02-17T05:07:44.019Z,99.90
2023-02-17T05:10:13.100Z,99.90
2023-02-17T05:12:41.389Z,99.90
2023-02-17T05:15:10.348Z,99.90
2023-02-17T05:17:39.353Z,99.90
2023-02-17T05:20:08.927Z,99.90
2023-02-17T05:22:38.817Z,99.90
2023-02-17T05:25:07.680Z,99.90
2023-02-17T05:27:36.267Z,99.90
2023-02-17T05:30:05.189Z,99.90
2023-02-17T05:32:33.231Z,99.90
2023-02-17T05:35:01.308Z,99.90
2023-02-17T05:37:29.390Z,99.90
2023-02-17T05:39:58.724Z,99.90
2023-02-17T05:42:28.839Z,99.90
2023-02-17T05:44:57.300Z,99.90
2023-02-17T05:47:27.569Z,99.90
2023-02-17T05:49:55.876Z,99.90
2023-02-17T05:52:23.925Z,99.90
2023-02-17T05:54:51.996Z,99.90
2023-02-17T05:57:21.392Z,99.90
2023-02-17T05:59:49.508Z,99.90
2023-02-17T06:02:17.534Z,99.90
2023-02-17T06:04:45.597Z,99.90
2023-02-17T06:07:13.736Z,99.90
2023-02-17T06:09:41.772Z,99.90
2023-02-17T06:12:09.749Z,99.90
2023-02-17T06:14:39.174Z,99.90
2023-02-17T06:17:07.301Z,99.90
2023-02-17T06:19:35.282Z,99.90
2023-02-17T06:22:04.180Z,99.90
2023-02-17T06:24:32.557Z,99.90
2023-02-17T06:27:01.581Z,99.90
2023-02-17T06:29:29.660Z,99.90
2023-02-17T06:31:59.070Z,99.90
2023-02-17T06:34:27.585Z,99.90
2023-02-17T06:36:55.842Z,99.90
2023-02-17T06:39:24.368Z,99.90
2023-02-17T06:41:52.400Z,99.90
2023-02-17T06:44:20.386Z,99.90
2023-02-17T06:46:48.445Z,99.90
2023-02-17T06:49:17.880Z,99.90
2023-02-17T06:51:45.911Z,99.90
2023-02-17T06:54:13.849Z,99.90
2023-02-17T06:56:41.825Z,99.90
2023-02-17T06:59:09.863Z,99.90
2023-02-17T07:01:38.036Z,99.90
2023-02-17T07:04:06.290Z,99.90
2023-02-17T07:06:35.714Z,99.90
2023-02-17T07:09:04.303Z,99.90
2023-02-17T07:11:32.931Z,99.90
2023-02-17T07:14:01.402Z,99.90
2023-02-17T07:16:29.400Z,99.90
2023-02-17T07:18:57.748Z,99.90
2023-02-17T07:21:25.884Z,99.90
2023-02-17T07:23:55.329Z,99.90
2023-02-17T07:26:23.816Z,99.90
2023-02-17T07:28:52.500Z,99.90
2023-02-17T07:31:20.597Z,99.90
2023-02-17T07:33:50.094Z,99.90
2023-02-17T07:36:18.438Z,99.90
2023-02-17T07:38:46.748Z,99.90
2023-02-17T07:41:18.723Z,99.90
2023-02-17T07:43:47.874Z,99.90
2023-02-17T07:46:18.186Z,99.90
2023-02-17T07:48:46.608Z,99.90
2023-02-17T07:51:17.197Z,99.90
2023-02-17T07:53:45.385Z,99.90
2023-02-17T07:56:16.617Z,99.90
2023-02-17T07:58:45.709Z,99.90
2023-02-17T08:01:15.524Z,99.90
2023-02-17T08:03:43.622Z,99.90
2023-02-17T08:06:12.896Z,99.90
2023-02-17T08:08:58.443Z,99.90
2023-02-17T08:11:46.781Z,99.90
2023-02-17T08:14:17.027Z,99.90
2023-02-17T08:16:45.214Z,99.90
2023-02-17T08:19:13.208Z,99.90
2023-02-17T08:21:41.375Z,99.90
2023-02-17T08:24:09.510Z,99.90
2023-02-17T08:26:38.942Z,99.90
2023-02-17T08:29:07.379Z,99.90
2023-02-17T08:31:37.714Z,99.90
2023-02-17T08:34:08.134Z,99.90
2023-02-17T08:36:37.486Z,99.90
2023-02-17T08:39:06.320Z,99.90
2023-02-17T08:41:36.179Z,99.90
2023-02-17T08:44:09.603Z,99.90
2023-02-17T08:46:38.153Z,99.90
2023-02-17T08:49:06.784Z,99.90
2023-02-17T08:51:35.602Z,99.90
2023-02-17T08:54:06.362Z,99.90
2023-02-17T08:56:35.410Z,99.90
2023-02-17T08:59:05.213Z,99.90
2023-02-17T09:01:33.459Z,99.90
2023-02-17T09:04:02.957Z,99.90
2023-02-17T09:06:36.112Z,99.90
2023-02-17T09:09:05.674Z,99.90
2023-02-17T09:11:33.888Z,99.90
2023-02-17T09:14:02.596Z,99.90
2023-02-17T09:16:32.699Z,99.90
2023-02-17T09:19:00.676Z,99.90
2023-02-17T09:21:28.916Z,99.90
2023-02-17T09:23:57.241Z,99.90
2023-02-17T09:26:25.242Z,99.90
2023-02-17T09:28:53.263Z,99.90
2023-02-17T09:31:23.434Z,99.90
2023-02-17T09:33:52.955Z,99.90
2023-02-17T09:36:23.085Z,99.90
2023-02-17T09:38:51.744Z,99.90
2023-02-17T09:41:24.314Z,99.90
2023-02-17T09:43:53.369Z,99.90
2023-02-17T09:46:25.268Z,99.90
2023-02-17T09:48:57.884Z,99.90
2023-02-17T09:51:31.127Z,99.90
2023-02-17T09:54:07.608Z,99.90
2023-02-17T09:56:41.034Z,99.90
2023-02-17T09:59:16.612Z,99.90
2023-02-17T10:01:47.386Z,99.90
2023-02-17T10:04:22.300Z,99.90
2023-02-17T10:06:55.561Z,99.90
2023-02-17T10:09:29.765Z,99.90
2023-02-17T10:12:02.871Z,99.90
2023-02-17T10:14:36.135Z,99.90
2023-02-17T10:17:08.045Z,99.90
2023-02-17T10:19:44.927Z,99.90
2023-02-17T10:22:17.007Z,99.90
2023-02-17T10:24:45.034Z,99.90
2023-02-17T10:27:25.848Z,99.90
2023-02-17T10:30:05.530Z,99.90
2023-02-17T10:32:46.199Z,99.90
2023-02-17T10:35:19.606Z,99.90
2023-02-17T10:37:49.568Z,99.90
2023-02-17T10:40:23.562Z,99.90
2023-02-17T10:42:54.258Z,99.90
2023-02-17T10:45:30.859Z,99.90
2023-02-17T10:48:04.572Z,99.90
2023-02-17T10:50:34.115Z,99.90
2023-02-17T10:53:02.154Z,99.90
2023-02-17T10:55:37.109Z,99.90
2023-02-17T10:58:12.011Z,99.90
2023-02-17T11:00:40.115Z,99.90
2023-02-17T11:03:19.389Z,99.90
2023-02-17T11:05:54.675Z,99.90
2023-02-17T11:08:31.102Z,99.90
2023-02-17T11:11:05.356Z,99.90
2023-02-17T11:13:37.452Z,99.90
2023-02-17T11:16:07.038Z,99.90
2023-02-17T11:18:40.182Z,99.90
2023-02-17T11:21:11.486Z,99.90
2023-02-17T11:23:50.801Z,99.90
2023-02-17T11:26:23.134Z,99.90
2023-02-17T11:28:51.264Z,99.90
2023-02-17T11:31:27.902Z,99.90
2023-02-17T11:33:57.052Z,99.90
2023-02-17T11:36:29.312Z,99.90
2023-02-17T11:38:59.536Z,99.90
2023-02-17T11:41:27.650Z,99.90
2023-02-17T11:43:58.572Z,99.90
2023-02-17T11:46:32.757Z,99.90
2023-02-17T11:49:46.470Z,99.90
2023-02-17T11:52:26.889Z,99.90
2023-02-17T11:55:09.071Z,98.20
2023-02-17T11:57:42.802Z,99.10
2023-02-17T12:00:19.202Z,98.90
2023-02-17T12:03:29.410Z,99.10
2023-02-17T12:06:05.460Z,98.50
2023-02-17T12:08:47.132Z,99.00
2023-02-17T12:11:23.479Z,99.20
2023-02-17T12:14:01.596Z,99.50
2023-02-17T12:16:43.035Z,99.00
2023-02-17T12:19:27.581Z,99.10
2023-02-17T12:22:05.042Z,98.80
2023-02-17T12:24:50.401Z,98.40
2023-02-17T12:27:29.383Z,98.50
2023-02-17T12:30:15.827Z,97.90
2023-02-17T12:32:58.184Z,98.70
2023-02-17T12:35:31.982Z,98.90
2023-02-17T12:38:03.039Z,99.40
2023-02-17T12:40:38.946Z,99.80
2023-02-17T12:43:20.500Z,99.60
2023-02-17T12:45:50.011Z,99.70
2023-02-17T12:48:27.147Z,99.50
2023-02-17T12:51:01.269Z,99.60
2023-02-17T12:53:41.919Z,99.60
2023-02-17T12:56:32.226Z,99.50
2023-02-17T12:59:07.066Z,99.80
2023-02-17T13:01:35.491Z,99.90
2023-02-17T13:04:05.069Z,99.90
2023-02-17T13:06:38.788Z,99.90
2023-02-17T13:09:18.635Z,99.90
2023-02-17T13:11:48.073Z,99.90
2023-02-17T13:14:27.227Z,99.90
2023-02-17T13:16:55.568Z,99.90
2023-02-17T13:19:30.027Z,99.90
2023-02-17T13:21:59.845Z,99.90
2023-02-17T13:24:35.451Z,99.90
2023-02-17T13:27:22.572Z,99.90
2023-02-17T13:30:00.346Z,99.90
2023-02-17T13:32:30.861Z,99.90
2023-02-17T13:35:05.830Z,99.90
2023-02-17T13:37:42.594Z,99.90
2023-02-17T13:40:34.573Z,99.90
2023-02-17T13:43:15.692Z,99.90
2023-02-17T13:45:48.206Z,99.90
2023-02-17T13:48:25.104Z,99.90
2023-02-17T13:50:55.568Z,99.90
2023-02-17T13:53:27.780Z,99.90
2023-02-17T13:55:58.088Z,99.90
2023-02-17T13:58:29.294Z,99.90
2023-02-17T14:01:00.224Z,99.90
2023-02-17T14:03:30.279Z,99.90
2023-02-17T14:06:00.077Z,99.90
2023-02-17T14:08:35.004Z,99.90
2023-02-17T14:11:08.955Z,99.90
2023-02-17T14:13:40.375Z,99.90
2023-02-17T14:16:09.180Z,99.90
2023-02-17T14:18:39.850Z,99.90
2023-02-17T14:21:10.384Z,99.90
2023-02-17T14:23:43.937Z,99.90
2023-02-17T14:26:14.948Z,99.90
2023-02-17T14:28:54.213Z,99.90
2023-02-17T14:31:23.350Z,99.90
2023-02-17T14:33:57.272Z,99.90
2023-02-17T14:36:35.188Z,99.90
2023-02-17T14:39:06.040Z,99.90
2023-02-17T14:41:34.555Z,99.90
2023-02-17T14:44:03.898Z,99.90
2023-02-17T14:46:32.051Z,99.90
2023-02-17T14:49:00.469Z,99.90
2023-02-17T14:51:35.061Z,99.90
2023-02-17T14:54:04.449Z,99.90
2023-02-17T14:56:36.652Z,99.90
2023-02-17T14:59:06.048Z,99.90
2023-02-17T15:01:34.195Z,99.90
2023-02-17T15:04:02.848Z,99.90
2023-02-17T15:06:37.497Z,99.90
2023-02-17T15:09:06.103Z,99.90
2023-02-17T15:11:36.962Z,99.90
2023-02-17T15:14:07.454Z,99.90
2023-02-17T15:16:35.465Z,99.90
2023-02-17T15:19:03.456Z,99.90
2023-02-17T15:21:33.710Z,99.90
2023-02-17T15:24:03.170Z,99.90
2023-02-17T15:26:31.822Z,99.90
2023-02-17T15:29:00.453Z,99.90
2023-02-17T15:31:33.299Z,99.90
2023-02-17T15:34:02.131Z,99.90
2023-02-17T15:36:32.273Z,99.90
2023-02-17T15:39:00.296Z,99.90
2023-02-17T15:41:31.656Z,99.90
2023-02-17T15:44:03.511Z,99.90
2023-02-17T15:46:35.218Z,99.90
2023-02-17T15:49:03.253Z,99.90
2023-02-17T15:51:31.267Z,99.90
2023-02-17T15:53:59.279Z,99.90
2023-02-17T15:56:31.678Z,99.90
2023-02-17T15:59:02.010Z,99.90
2023-02-17T16:01:32.331Z,99.90
2023-02-17T16:04:02.044Z,99.90
2023-02-17T16:06:30.616Z,99.90
2023-02-17T16:08:59.741Z,99.90
2023-02-17T16:11:29.177Z,99.90
2023-02-17T16:13:57.599Z,99.90
2023-02-17T16:16:28.688Z,99.90
2023-02-17T16:18:57.140Z,99.90
2023-02-17T16:21:26.779Z,99.90
2023-02-17T16:23:59.677Z,99.90
2023-02-17T16:26:33.606Z,99.90
2023-02-17T16:29:11.237Z,99.90
2023-02-17T16:31:39.373Z,99.90
2023-02-17T16:34:07.427Z,99.90
2023-02-17T16:36:37.941Z,99.90
2023-02-17T16:39:13.033Z,99.90
2023-02-17T16:41:41.466Z,99.90
2023-02-17T16:44:12.856Z,99.90
2023-02-17T16:46:48.264Z,99.90
2023-02-17T16:49:24.455Z,99.90
2023-02-17T16:51:54.045Z,99.90
2023-02-17T16:54:22.046Z,99.90
2023-02-17T16:56:52.111Z,99.90
2023-02-17T16:59:22.580Z,99.90
2023-02-17T17:01:53.127Z,99.90
2023-02-17T17:04:21.572Z,99.90
2023-02-17T17:06:51.958Z,99.90
2023-02-17T17:09:26.242Z,99.90
2023-02-17T17:11:54.409Z,99.90
2023-02-17T17:14:22.363Z,99.90
2023-02-17T17:16:55.782Z,99.90
2023-02-17T17:19:24.842Z,99.90
2023-02-17T17:21:53.231Z,99.90
2023-02-17T17:24:22.829Z,99.90
2023-02-17T17:26:51.666Z,99.90
2023-02-17T17:29:20.675Z,99.90
2023-02-17T17:31:49.173Z,99.90
2023-02-17T17:34:17.313Z,99.90
2023-02-17T17:36:47.652Z,99.90
2023-02-17T17:39:17.897Z,99.90
2023-02-17T17:41:48.039Z,99.90
2023-02-17T17:44:16.467Z,99.90
2023-02-17T17:46:45.116Z,99.90
2023-02-17T17:49:14.672Z,99.90
2023-02-17T17:51:42.955Z,99.90
2023-02-17T17:54:10.951Z,99.90
2023-02-17T17:56:42.477Z,99.90
2023-02-17T17:59:12.938Z,99.90
2023-02-17T18:01:42.030Z,99.90
2023-02-17T18:04:11.348Z,99.90
2023-02-17T18:06:44.037Z,99.90
2023-02-17T18:09:30.230Z,99.90
2023-02-17T18:12:02.520Z,99.90
2023-02-17T18:14:33.013Z,99.90
2023-02-17T18:17:01.267Z,99.90
2023-02-17T18:19:31.555Z,99.90
2023-02-17T18:22:00.574Z,99.90
2023-02-17T18:24:28.747Z,99.90
2023-02-17T18:26:56.811Z,99.90
2023-02-17T18:29:24.852Z,99.90
2023-02-17T18:31:54.300Z,99.90
2023-02-17T18:34:22.459Z,99.90
2023-02-17T18:36:50.659Z,99.90
2023-02-17T18:39:18.894Z,99.90
2023-02-17T18:41:46.942Z,99.90
2023-02-17T18:44:14.990Z,99.90
2023-02-17T18:46:43.291Z,99.90
2023-02-17T18:49:12.909Z,99.90
2023-02-17T18:51:41.069Z,99.90
2023-02-17T18:54:10.995Z,99.90
2023-02-17T18:56:39.375Z,99.90
2023-02-17T18:59:07.426Z,99.90
2023-02-17T19:01:38.553Z,99.90
2023-02-17T19:04:06.937Z,99.90
2023-02-17T19:06:36.323Z,99.90
2023-02-17T19:09:05.179Z,99.90
2023-02-17T19:11:34.232Z,99.90
2023-02-17T19:14:03.427Z,99.90
2023-02-17T19:16:33.137Z,99.90
2023-02-17T19:19:01.792Z,99.90
2023-02-17T19:21:30.832Z,99.90
2023-02-17T19:24:00.865Z,99.90
2023-02-17T19:26:29.046Z,99.90
2023-02-17T19:28:57.366Z,99.80
2023-02-17T19:31:25.651Z,99.70
2023-02-17T19:33:53.650Z,99.20
2023-02-17T19:36:23.113Z,98.90
2023-02-17T19:38:52.241Z,98.60
2023-02-17T19:41:21.718Z,98.50
2023-02-17T19:43:50.844Z,98.40
2023-02-17T19:46:22.667Z,98.40
2023-02-17T19:48:50.908Z,98.40
2023-02-17T19:51:19.064Z,98.10
2023-02-17T19:53:47.296Z,97.90
2023-02-17T19:56:17.458Z,97.90
2023-02-17T19:58:47.631Z,97.80
2023-02-17T20:01:17.928Z,98.00
2023-02-17T20:03:46.623Z,98.30
2023-02-17T20:06:17.675Z,98.20
2023-02-17T20:08:47.358Z,98.30
2023-02-17T20:11:16.022Z,98.40
2023-02-17T20:13:46.553Z,98.50
2023-02-17T20:16:17.676Z,98.60
2023-02-17T20:18:47.581Z,98.50
2023-02-17T20:21:17.467Z,98.50
2023-02-17T20:23:45.696Z,98.70
2023-02-17T20:26:16.493Z,99.00
2023-02-17T20:28:44.633Z,99.40
2023-02-17T20:31:13.409Z,99.70
2023-02-17T20:33:43.632Z,99.90
2023-02-17T20:36:12.315Z,99.90
2023-02-17T20:38:40.940Z,99.90
2023-02-17T20:41:10.307Z,99.90
2023-02-17T20:43:39.068Z,99.90
2023-02-17T20:46:07.830Z,99.90
2023-02-17T20:48:36.045Z,99.90
2023-02-17T20:51:05.787Z,99.90
2023-02-17T20:53:33.815Z,99.90
2023-02-17T20:56:01.932Z,99.90
2023-02-17T20:58:30.217Z,99.90
2023-02-17T21:00:58.244Z,99.90
2023-02-17T21:03:26.343Z,99.90
2023-02-17T21:05:54.393Z,99.90
2023-02-17T21:08:23.757Z,99.90
2023-02-17T21:10:51.861Z,99.90
2023-02-17T21:13:22.680Z,99.90
2023-02-17T21:15:51.532Z,99.90
2023-02-17T21:18:19.594Z,99.90
2023-02-17T21:20:47.606Z,99.90
2023-02-17T21:23:15.844Z,99.90
2023-02-17T21:25:47.344Z,99.90
2023-02-17T21:28:17.508Z,99.90
2023-02-17T21:30:47.300Z,99.90
2023-02-17T21:33:15.522Z,99.90
2023-02-17T21:35:43.630Z,99.90
2023-02-17T21:38:12.286Z,99.90
2023-02-17T21:40:40.273Z,99.90
2023-02-17T21:43:29.439Z,99.90
2023-02-17T21:45:57.532Z,99.90
2023-02-17T21:48:25.959Z,99.90
2023-02-17T21:50:53.925Z,99.90
2023-02-17T21:53:21.912Z,99.90
2023-02-17T21:55:49.869Z,99.90
2023-02-17T21:58:19.222Z,99.90
2023-02-17T22:00:49.340Z,99.90
2023-02-17T22:03:17.454Z,99.90
2023-02-17T22:05:45.616Z,99.90
2023-02-17T22:08:14.044Z,99.90
2023-02-17T22:10:42.988Z,99.90
2023-02-17T22:13:11.854Z,99.90
2023-02-17T22:15:41.417Z,99.90
2023-02-17T22:18:09.505Z,99.90
2023-02-17T22:20:38.117Z,99.90
2023-02-17T22:23:06.133Z,99.90
2023-02-17T22:25:34.234Z,99.90
2023-02-17T22:28:02.620Z,99.90
2023-02-17T22:30:30.677Z,99.90
2023-02-17T22:33:00.138Z,99.90
2023-02-17T22:35:28.135Z,99.90
2023-02-17T22:37:57.525Z,99.90
2023-02-17T22:40:25.641Z,99.90
2023-02-17T22:42:53.670Z,99.90
2023-02-17T22:45:21.819Z,99.90
2023-02-17T22:47:49.865Z,99.90
2023-02-17T22:50:19.468Z,99.90
2023-02-17T22:52:47.672Z,99.90
2023-02-17T22:55:15.664Z,99.90
2023-02-17T22:57:43.658Z,99.90
2023-02-17T23:00:12.593Z,99.90
2023-02-17T23:02:40.646Z,99.90
2023-02-17T23:05:08.862Z,99.90
2023-02-17T23:07:38.250Z,99.90
2023-02-17T23:10:07.391Z,99.90
2023-02-17T23:12:35.420Z,99.90
2023-02-17T23:15:03.812Z,99.90
2023-02-17T23:17:51.911Z,99.90
2023-02-17T23:20:20.262Z,99.90
2023-02-17T23:22:49.681Z,99.90
2023-02-17T23:25:17.909Z,99.90
2023-02-17T23:27:45.952Z,99.90
2023-02-17T23:30:21.429Z,99.90
2023-02-17T23:32:49.735Z,99.90
2023-02-17T23:35:18.042Z,99.90
2023-02-17T23:37:46.081Z,99.90
2023-02-17T23:40:16.383Z,99.90
2023-02-17T23:42:44.399Z,99.90
2023-02-17T23:45:12.852Z,99.90
2023-02-17T23:47:40.967Z,99.90
2023-02-17T23:50:09.889Z,99.90
2023-02-17T23:52:37.907Z,99.90
2023-02-17T23:55:07.706Z,99.90
2023-02-17T23:57:39.338Z,99.90
